sensor_id;sensor_type;location;lat;lon;timestamp;temperature;humidity
65766;SHT31;52915;53.718;19.946;2022-09-09T00:04:42;15.04;57.97
65766;SHT31;52915;53.718;19.946;2022-09-09T00:10:28;15.00;58.12
65766;SHT31;52915;53.718;19.946;2022-09-09T00:15:59;14.97;58.19
65766;SHT31;52915;53.718;19.946;2022-09-09T00:21:13;14.92;58.27
65766;SHT31;52915;53.718;19.946;2022-09-09T00:26:23;14.89;58.35
65766;SHT31;52915;53.718;19.946;2022-09-09T00:31:43;14.87;58.17
65766;SHT31;52915;53.718;19.946;2022-09-09T00:36:48;14.86;58.24
65766;SHT31;52915;53.718;19.946;2022-09-09T00:42:16;14.83;58.32
65766;SHT31;52915;53.718;19.946;2022-09-09T00:58:31;14.72;58.52
65766;SHT31;52915;53.718;19.946;2022-09-09T01:14:41;14.62;58.58
65766;SHT31;52915;53.718;19.946;2022-09-09T01:25:29;14.56;58.66
65766;SHT31;52915;53.718;19.946;2022-09-09T01:31:05;14.52;58.65
65766;SHT31;52915;53.718;19.946;2022-09-09T01:37:16;14.48;58.67
65766;SHT31;52915;53.718;19.946;2022-09-09T01:42:12;14.44;58.79
65766;SHT31;52915;53.718;19.946;2022-09-09T01:47:19;14.41;58.85
65766;SHT31;52915;53.718;19.946;2022-09-09T01:52:24;14.36;58.92
65766;SHT31;52915;53.718;19.946;2022-09-09T01:57:31;14.32;58.92
65766;SHT31;52915;53.718;19.946;2022-09-09T02:08:29;14.25;58.99
65766;SHT31;52915;53.718;19.946;2022-09-09T02:13:49;14.22;59.06
65766;SHT31;52915;53.718;19.946;2022-09-09T02:19:13;14.18;59.08
65766;SHT31;52915;53.718;19.946;2022-09-09T02:24:29;14.17;58.91
65766;SHT31;52915;53.718;19.946;2022-09-09T02:29:39;14.16;58.99
65766;SHT31;52915;53.718;19.946;2022-09-09T02:35:05;14.15;58.91
65766;SHT31;52915;53.718;19.946;2022-09-09T02:40:15;14.10;59.52
65766;SHT31;52915;53.718;19.946;2022-09-09T02:45:20;13.99;61.12
65766;SHT31;52915;53.718;19.946;2022-09-09T02:50:31;13.86;62.08
65766;SHT31;52915;53.718;19.946;2022-09-09T02:55:45;13.70;63.14
65766;SHT31;52915;53.718;19.946;2022-09-09T03:00:54;13.54;64.11
65766;SHT31;52915;53.718;19.946;2022-09-09T03:06:01;13.41;64.90
65766;SHT31;52915;53.718;19.946;2022-09-09T03:11:06;13.28;66.11
65766;SHT31;52915;53.718;19.946;2022-09-09T03:21:36;13.12;68.44
65766;SHT31;52915;53.718;19.946;2022-09-09T03:26:41;12.94;70.21
65766;SHT31;52915;53.718;19.946;2022-09-09T03:31:47;12.80;71.83
65766;SHT31;52915;53.718;19.946;2022-09-09T03:36:52;12.67;72.53
65766;SHT31;52915;53.718;19.946;2022-09-09T03:41:56;12.58;73.78
65766;SHT31;52915;53.718;19.946;2022-09-09T03:47:00;12.49;74.58
65766;SHT31;52915;53.718;19.946;2022-09-09T03:52:04;12.41;75.04
65766;SHT31;52915;53.718;19.946;2022-09-09T03:57:11;12.37;75.86
65766;SHT31;52915;53.718;19.946;2022-09-09T04:02:16;12.27;76.44
65766;SHT31;52915;53.718;19.946;2022-09-09T04:07:20;12.13;76.88
65766;SHT31;52915;53.718;19.946;2022-09-09T04:12:24;11.99;77.33
65766;SHT31;52915;53.718;19.946;2022-09-09T04:17:28;11.88;77.83
65766;SHT31;52915;53.718;19.946;2022-09-09T04:22:32;11.78;78.50
65766;SHT31;52915;53.718;19.946;2022-09-09T04:27:37;11.74;78.92
65766;SHT31;52915;53.718;19.946;2022-09-09T04:32:41;11.73;79.29
65766;SHT31;52915;53.718;19.946;2022-09-09T04:37:45;11.72;79.67
65766;SHT31;52915;53.718;19.946;2022-09-09T04:42:49;11.74;79.91
65766;SHT31;52915;53.718;19.946;2022-09-09T04:47:53;11.76;79.86
65766;SHT31;52915;53.718;19.946;2022-09-09T04:53:01;11.74;80.23
65766;SHT31;52915;53.718;19.946;2022-09-09T04:58:08;11.62;80.61
65766;SHT31;52915;53.718;19.946;2022-09-09T05:03:12;11.50;81.07
65766;SHT31;52915;53.718;19.946;2022-09-09T05:08:16;11.36;81.68
65766;SHT31;52915;53.718;19.946;2022-09-09T05:13:21;11.21;82.22
65766;SHT31;52915;53.718;19.946;2022-09-09T05:18:25;11.13;82.60
65766;SHT31;52915;53.718;19.946;2022-09-09T05:23:30;11.10;82.82
65766;SHT31;52915;53.718;19.946;2022-09-09T05:28:35;11.05;82.98
65766;SHT31;52915;53.718;19.946;2022-09-09T05:33:40;11.05;82.97
65766;SHT31;52915;53.718;19.946;2022-09-09T05:38:46;10.99;83.22
65766;SHT31;52915;53.718;19.946;2022-09-09T05:43:52;10.97;83.29
65766;SHT31;52915;53.718;19.946;2022-09-09T05:48:56;10.96;83.68
65766;SHT31;52915;53.718;19.946;2022-09-09T05:54:01;10.94;83.92
65766;SHT31;52915;53.718;19.946;2022-09-09T05:59:05;10.92;84.03
65766;SHT31;52915;53.718;19.946;2022-09-09T06:04:10;10.95;84.10
65766;SHT31;52915;53.718;19.946;2022-09-09T06:09:15;10.96;84.42
65766;SHT31;52915;53.718;19.946;2022-09-09T06:14:19;10.95;84.50
65766;SHT31;52915;53.718;19.946;2022-09-09T06:19:25;10.99;84.50
65766;SHT31;52915;53.718;19.946;2022-09-09T06:24:30;10.98;84.59
65766;SHT31;52915;53.718;19.946;2022-09-09T06:29:36;11.01;84.74
65766;SHT31;52915;53.718;19.946;2022-09-09T06:34:40;11.04;84.73
65766;SHT31;52915;53.718;19.946;2022-09-09T06:39:44;11.01;84.92
65766;SHT31;52915;53.718;19.946;2022-09-09T06:44:48;11.01;85.03
65766;SHT31;52915;53.718;19.946;2022-09-09T06:49:52;11.02;85.19
65766;SHT31;52915;53.718;19.946;2022-09-09T06:54:56;10.98;85.36
65766;SHT31;52915;53.718;19.946;2022-09-09T07:00:02;10.97;85.36
65766;SHT31;52915;53.718;19.946;2022-09-09T07:05:07;10.96;85.46
65766;SHT31;52915;53.718;19.946;2022-09-09T07:10:12;11.02;85.32
65766;SHT31;52915;53.718;19.946;2022-09-09T07:15:16;11.02;85.36
65766;SHT31;52915;53.718;19.946;2022-09-09T07:20:22;10.98;85.79
65766;SHT31;52915;53.718;19.946;2022-09-09T07:25:26;10.91;86.13
65766;SHT31;52915;53.718;19.946;2022-09-09T07:30:32;10.94;85.93
65766;SHT31;52915;53.718;19.946;2022-09-09T07:35:35;10.98;86.00
65766;SHT31;52915;53.718;19.946;2022-09-09T07:40:42;11.03;86.00
65766;SHT31;52915;53.718;19.946;2022-09-09T07:45:46;11.07;85.78
65766;SHT31;52915;53.718;19.946;2022-09-09T07:50:51;11.09;85.62
65766;SHT31;52915;53.718;19.946;2022-09-09T07:55:55;11.11;85.75
65766;SHT31;52915;53.718;19.946;2022-09-09T08:01:14;11.17;85.82
65766;SHT31;52915;53.718;19.946;2022-09-09T08:06:26;11.29;85.81
65766;SHT31;52915;53.718;19.946;2022-09-09T08:11:37;11.25;85.89
65766;SHT31;52915;53.718;19.946;2022-09-09T08:16:45;11.33;85.87
65766;SHT31;52915;53.718;19.946;2022-09-09T08:21:52;11.41;85.55
65766;SHT31;52915;53.718;19.946;2022-09-09T08:26:56;11.45;85.77
65766;SHT31;52915;53.718;19.946;2022-09-09T08:32:00;11.56;85.65
65766;SHT31;52915;53.718;19.946;2022-09-09T08:37:05;11.65;85.60
65766;SHT31;52915;53.718;19.946;2022-09-09T08:47:48;11.69;85.69
65766;SHT31;52915;53.718;19.946;2022-09-09T08:53:38;11.67;85.76
65766;SHT31;52915;53.718;19.946;2022-09-09T08:58:52;11.58;85.85
65766;SHT31;52915;53.718;19.946;2022-09-09T09:04:06;11.49;86.07
65766;SHT31;52915;53.718;19.946;2022-09-09T09:09:46;11.47;85.99
65766;SHT31;52915;53.718;19.946;2022-09-09T09:15:41;11.56;85.92
65766;SHT31;52915;53.718;19.946;2022-09-09T09:20:58;11.64;86.07
65766;SHT31;52915;53.718;19.946;2022-09-09T09:26:10;11.70;85.85
65766;SHT31;52915;53.718;19.946;2022-09-09T09:31:14;11.75;85.68
65766;SHT31;52915;53.718;19.946;2022-09-09T09:36:21;11.79;85.75
65766;SHT31;52915;53.718;19.946;2022-09-09T09:41:41;11.82;85.72
65766;SHT31;52915;53.718;19.946;2022-09-09T09:46:46;11.82;85.57
65766;SHT31;52915;53.718;19.946;2022-09-09T09:51:50;11.85;85.57
65766;SHT31;52915;53.718;19.946;2022-09-09T09:56:56;11.91;85.58
65766;SHT31;52915;53.718;19.946;2022-09-09T10:02:24;11.96;85.51
65766;SHT31;52915;53.718;19.946;2022-09-09T10:07:30;12.00;85.85
65766;SHT31;52915;53.718;19.946;2022-09-09T10:24:02;12.27;85.68
65766;SHT31;52915;53.718;19.946;2022-09-09T10:30:14;12.35;85.57
65766;SHT31;52915;53.718;19.946;2022-09-09T10:35:29;12.43;85.39
65766;SHT31;52915;53.718;19.946;2022-09-09T10:40:40;12.45;85.57
65766;SHT31;52915;53.718;19.946;2022-09-09T10:46:26;12.52;85.24
65766;SHT31;52915;53.718;19.946;2022-09-09T10:57:14;12.52;85.46
65766;SHT31;52915;53.718;19.946;2022-09-09T11:02:37;12.49;85.68
65766;SHT31;52915;53.718;19.946;2022-09-09T11:07:49;12.47;85.84
65766;SHT31;52915;53.718;19.946;2022-09-09T11:13:04;12.53;85.81
65766;SHT31;52915;53.718;19.946;2022-09-09T11:18:19;12.56;85.79
65766;SHT31;52915;53.718;19.946;2022-09-09T11:30:04;12.48;85.46
65766;SHT31;52915;53.718;19.946;2022-09-09T11:41:36;12.40;86.14
65766;SHT31;52915;53.718;19.946;2022-09-09T11:46:41;12.45;86.12
65766;SHT31;52915;53.718;19.946;2022-09-09T11:51:48;12.54;86.09
65766;SHT31;52915;53.718;19.946;2022-09-09T11:56:54;12.59;85.92
65766;SHT31;52915;53.718;19.946;2022-09-09T12:02:13;12.57;86.04
65766;SHT31;52915;53.718;19.946;2022-09-09T12:07:33;12.59;86.16
65766;SHT31;52915;53.718;19.946;2022-09-09T12:12:49;12.58;86.25
65766;SHT31;52915;53.718;19.946;2022-09-09T12:17:55;12.56;86.37
65766;SHT31;52915;53.718;19.946;2022-09-09T12:23:10;12.59;86.48
65766;SHT31;52915;53.718;19.946;2022-09-09T12:28:42;12.70;86.35
65766;SHT31;52915;53.718;19.946;2022-09-09T12:34:16;12.78;86.16
65766;SHT31;52915;53.718;19.946;2022-09-09T12:39:38;12.75;86.32
65766;SHT31;52915;53.718;19.946;2022-09-09T12:49:57;12.72;86.46
65766;SHT31;52915;53.718;19.946;2022-09-09T12:55:03;12.76;86.39
65766;SHT31;52915;53.718;19.946;2022-09-09T13:00:15;12.77;86.54
65766;SHT31;52915;53.718;19.946;2022-09-09T13:05:27;12.80;86.58
65766;SHT31;52915;53.718;19.946;2022-09-09T13:16:05;12.78;86.61
65766;SHT31;52915;53.718;19.946;2022-09-09T13:21:42;12.81;86.54
65766;SHT31;52915;53.718;19.946;2022-09-09T13:26:53;12.75;86.93
65766;SHT31;52915;53.718;19.946;2022-09-09T13:32:16;12.78;86.95
65766;SHT31;52915;53.718;19.946;2022-09-09T13:37:23;12.89;86.91
65766;SHT31;52915;53.718;19.946;2022-09-09T13:42:38;12.96;86.69
65766;SHT31;52915;53.718;19.946;2022-09-09T13:47:45;12.96;86.65
65766;SHT31;52915;53.718;19.946;2022-09-09T13:52:54;12.94;86.77
65766;SHT31;52915;53.718;19.946;2022-09-09T13:58:03;13.04;86.62
65766;SHT31;52915;53.718;19.946;2022-09-09T14:03:08;13.02;86.50
65766;SHT31;52915;53.718;19.946;2022-09-09T14:08:20;13.09;86.50
65766;SHT31;52915;53.718;19.946;2022-09-09T14:13:28;13.11;86.43
65766;SHT31;52915;53.718;19.946;2022-09-09T14:18:32;13.09;86.54
65766;SHT31;52915;53.718;19.946;2022-09-09T14:23:37;13.11;86.42
65766;SHT31;52915;53.718;19.946;2022-09-09T14:28:42;13.10;86.46
65766;SHT31;52915;53.718;19.946;2022-09-09T14:33:59;13.09;86.61
65766;SHT31;52915;53.718;19.946;2022-09-09T14:39:03;13.05;86.73
65766;SHT31;52915;53.718;19.946;2022-09-09T14:44:07;13.06;86.76
65766;SHT31;52915;53.718;19.946;2022-09-09T14:49:12;13.11;86.65
65766;SHT31;52915;53.718;19.946;2022-09-09T14:54:18;13.19;86.50
65766;SHT31;52915;53.718;19.946;2022-09-09T14:59:23;13.20;86.57
65766;SHT31;52915;53.718;19.946;2022-09-09T15:04:29;13.24;86.56
65766;SHT31;52915;53.718;19.946;2022-09-09T15:09:34;13.28;86.43
65766;SHT31;52915;53.718;19.946;2022-09-09T15:14:40;13.23;86.66
65766;SHT31;52915;53.718;19.946;2022-09-09T15:19:45;13.22;86.71
65766;SHT31;52915;53.718;19.946;2022-09-09T15:24:50;13.19;86.96
65766;SHT31;52915;53.718;19.946;2022-09-09T15:29:54;13.19;87.05
65766;SHT31;52915;53.718;19.946;2022-09-09T15:34:58;13.21;86.89
65766;SHT31;52915;53.718;19.946;2022-09-09T15:40:02;13.20;87.05
65766;SHT31;52915;53.718;19.946;2022-09-09T15:45:07;13.20;87.13
65766;SHT31;52915;53.718;19.946;2022-09-09T15:50:12;13.21;87.18
65766;SHT31;52915;53.718;19.946;2022-09-09T15:55:16;13.24;87.17
65766;SHT31;52915;53.718;19.946;2022-09-09T16:00:22;13.23;87.15
65766;SHT31;52915;53.718;19.946;2022-09-09T16:05:30;13.25;87.09
65766;SHT31;52915;53.718;19.946;2022-09-09T16:10:38;13.22;87.45
65766;SHT31;52915;53.718;19.946;2022-09-09T16:15:55;13.17;87.73
65766;SHT31;52915;53.718;19.946;2022-09-09T16:20:59;13.15;87.96
65766;SHT31;52915;53.718;19.946;2022-09-09T16:26:04;13.11;88.00
65766;SHT31;52915;53.718;19.946;2022-09-09T16:31:21;13.17;87.93
65766;SHT31;52915;53.718;19.946;2022-09-09T16:36:29;13.17;87.92
65766;SHT31;52915;53.718;19.946;2022-09-09T16:41:40;13.14;87.98
65766;SHT31;52915;53.718;19.946;2022-09-09T16:46:46;13.12;88.24
65766;SHT31;52915;53.718;19.946;2022-09-09T16:51:52;13.06;88.53
65766;SHT31;52915;53.718;19.946;2022-09-09T16:57:05;13.07;88.56
65766;SHT31;52915;53.718;19.946;2022-09-09T17:02:10;13.05;88.54
65766;SHT31;52915;53.718;19.946;2022-09-09T17:07:16;13.04;88.49
65766;SHT31;52915;53.718;19.946;2022-09-09T17:12:24;13.04;88.43
65766;SHT31;52915;53.718;19.946;2022-09-09T17:17:32;12.96;88.64
65766;SHT31;52915;53.718;19.946;2022-09-09T17:22:44;12.91;88.86
65766;SHT31;52915;53.718;19.946;2022-09-09T17:27:49;12.81;89.29
65766;SHT31;52915;53.718;19.946;2022-09-09T17:32:54;12.75;89.46
65766;SHT31;52915;53.718;19.946;2022-09-09T17:37:59;12.68;89.74
65766;SHT31;52915;53.718;19.946;2022-09-09T17:43:04;12.63;89.96
65766;SHT31;52915;53.718;19.946;2022-09-09T17:48:09;12.64;89.92
65766;SHT31;52915;53.718;19.946;2022-09-09T17:53:16;12.69;89.81
65766;SHT31;52915;53.718;19.946;2022-09-09T17:58:21;12.68;89.74
65766;SHT31;52915;53.718;19.946;2022-09-09T18:03:27;12.66;89.94
65766;SHT31;52915;53.718;19.946;2022-09-09T18:08:40;12.66;89.90
65766;SHT31;52915;53.718;19.946;2022-09-09T18:13:52;12.68;89.81
65766;SHT31;52915;53.718;19.946;2022-09-09T18:19:00;12.63;89.98
65766;SHT31;52915;53.718;19.946;2022-09-09T18:24:13;12.57;90.11
65766;SHT31;52915;53.718;19.946;2022-09-09T18:29:23;12.58;90.15
65766;SHT31;52915;53.718;19.946;2022-09-09T18:34:29;12.60;90.24
65766;SHT31;52915;53.718;19.946;2022-09-09T18:39:35;12.60;90.17
65766;SHT31;52915;53.718;19.946;2022-09-09T18:44:40;12.65;90.03
65766;SHT31;52915;53.718;19.946;2022-09-09T18:49:46;12.63;90.06
65766;SHT31;52915;53.718;19.946;2022-09-09T18:54:53;12.64;89.92
65766;SHT31;52915;53.718;19.946;2022-09-09T18:59:58;12.64;89.86
65766;SHT31;52915;53.718;19.946;2022-09-09T19:05:05;12.68;89.79
65766;SHT31;52915;53.718;19.946;2022-09-09T19:10:10;12.67;89.87
65766;SHT31;52915;53.718;19.946;2022-09-09T19:15:16;12.62;89.98
65766;SHT31;52915;53.718;19.946;2022-09-09T19:20:20;12.62;90.07
65766;SHT31;52915;53.718;19.946;2022-09-09T19:25:27;12.61;90.09
65766;SHT31;52915;53.718;19.946;2022-09-09T19:30:36;12.61;90.03
65766;SHT31;52915;53.718;19.946;2022-09-09T19:35:40;12.65;89.79
65766;SHT31;52915;53.718;19.946;2022-09-09T19:40:47;12.65;89.86
65766;SHT31;52915;53.718;19.946;2022-09-09T19:45:58;12.60;89.93
65766;SHT31;52915;53.718;19.946;2022-09-09T19:51:13;12.58;90.01
65766;SHT31;52915;53.718;19.946;2022-09-09T19:56:26;12.60;89.97
65766;SHT31;52915;53.718;19.946;2022-09-09T20:01:33;12.64;89.92
65766;SHT31;52915;53.718;19.946;2022-09-09T20:06:43;12.65;89.82
65766;SHT31;52915;53.718;19.946;2022-09-09T20:11:51;12.64;89.85
65766;SHT31;52915;53.718;19.946;2022-09-09T20:17:01;12.61;89.83
65766;SHT31;52915;53.718;19.946;2022-09-09T20:22:16;12.63;89.89
65766;SHT31;52915;53.718;19.946;2022-09-09T20:27:20;12.61;89.92
65766;SHT31;52915;53.718;19.946;2022-09-09T20:32:26;12.65;89.79
65766;SHT31;52915;53.718;19.946;2022-09-09T20:37:34;12.69;89.59
65766;SHT31;52915;53.718;19.946;2022-09-09T20:42:38;12.70;89.50
65766;SHT31;52915;53.718;19.946;2022-09-09T20:47:44;12.66;89.56
65766;SHT31;52915;53.718;19.946;2022-09-09T20:53:06;12.65;89.68
65766;SHT31;52915;53.718;19.946;2022-09-09T20:58:12;12.68;89.54
65766;SHT31;52915;53.718;19.946;2022-09-09T21:03:19;12.67;89.43
65766;SHT31;52915;53.718;19.946;2022-09-09T21:08:25;12.66;89.40
65766;SHT31;52915;53.718;19.946;2022-09-09T21:13:32;12.61;89.47
65766;SHT31;52915;53.718;19.946;2022-09-09T21:18:46;12.66;89.35
65766;SHT31;52915;53.718;19.946;2022-09-09T21:23:55;12.71;89.25
65766;SHT31;52915;53.718;19.946;2022-09-09T21:29:04;12.65;89.42
65766;SHT31;52915;53.718;19.946;2022-09-09T21:34:12;12.63;89.50
65766;SHT31;52915;53.718;19.946;2022-09-09T21:39:17;12.64;89.68
65766;SHT31;52915;53.718;19.946;2022-09-09T21:44:22;12.59;89.83
65766;SHT31;52915;53.718;19.946;2022-09-09T21:49:27;12.59;89.78
65766;SHT31;52915;53.718;19.946;2022-09-09T21:54:36;12.60;89.71
65766;SHT31;52915;53.718;19.946;2022-09-09T21:59:46;12.61;89.60
65766;SHT31;52915;53.718;19.946;2022-09-09T22:04:50;12.65;89.51
65766;SHT31;52915;53.718;19.946;2022-09-09T22:09:55;12.69;89.38
65766;SHT31;52915;53.718;19.946;2022-09-09T22:14:59;12.74;89.32
65766;SHT31;52915;53.718;19.946;2022-09-09T22:20:04;12.66;89.46
65766;SHT31;52915;53.718;19.946;2022-09-09T22:25:09;12.63;89.67
65766;SHT31;52915;53.718;19.946;2022-09-09T22:30:14;12.61;89.72
65766;SHT31;52915;53.718;19.946;2022-09-09T22:35:19;12.59;89.78
65766;SHT31;52915;53.718;19.946;2022-09-09T22:40:23;12.60;89.70
65766;SHT31;52915;53.718;19.946;2022-09-09T22:45:31;12.61;89.54
65766;SHT31;52915;53.718;19.946;2022-09-09T22:50:35;12.61;89.42
65766;SHT31;52915;53.718;19.946;2022-09-09T22:55:57;12.61;89.42
65766;SHT31;52915;53.718;19.946;2022-09-09T23:01:08;12.60;89.42
65766;SHT31;52915;53.718;19.946;2022-09-09T23:06:19;12.63;89.16
65766;SHT31;52915;53.718;19.946;2022-09-09T23:11:27;12.63;88.91
65766;SHT31;52915;53.718;19.946;2022-09-09T23:16:37;12.62;88.88
65766;SHT31;52915;53.718;19.946;2022-09-09T23:21:48;12.63;88.69
65766;SHT31;52915;53.718;19.946;2022-09-09T23:26:52;12.68;88.50
65766;SHT31;52915;53.718;19.946;2022-09-09T23:31:56;12.67;88.45
65766;SHT31;52915;53.718;19.946;2022-09-09T23:37:00;12.64;88.51
65766;SHT31;52915;53.718;19.946;2022-09-09T23:42:08;12.56;88.72
65766;SHT31;52915;53.718;19.946;2022-09-09T23:47:13;12.54;88.75
65766;SHT31;52915;53.718;19.946;2022-09-09T23:52:17;12.49;88.98
65766;SHT31;52915;53.718;19.946;2022-09-09T23:57:21;12.45;89.22
